Time;durP1;ratioP1;P1;durP2;ratioP2;P2;SDS_P1;SDS_P2;PMS_P1;PMS_P2;Temp;Humidity;BMP_temperature;BMP_pressure;BME280_temperature;BME280_humidity;BME280_pressure;Samples;Min_cycle;Max_cycle;Signal;HPM_P1;HPM_P2
2023/03/12 00:01:00;;;;;;;0.10;0.10;;;;;;;0.85;97.96;97480.16;5029467;28;20064;-69
2023/03/12 00:03:26;;;;;;;0.10;0.10;;;;;;;0.83;98.29;97474.22;5026729;28;20053;-69
2023/03/12 00:05:52;;;;;;;0.10;0.10;;;;;;;0.84;98.41;97465.88;5025770;28;20412;-68
2023/03/12 00:08:18;;;;;;;0.10;0.10;;;;;;;0.91;98.64;97479.06;5003197;28;20046;-70
2023/03/12 00:10:46;;;;;;;0.10;0.10;;;;;;;0.92;98.87;97459.16;5027526;28;20045;-69
2023/03/12 00:13:12;;;;;;;0.10;0.10;;;;;;;0.98;98.96;97465.34;5024479;28;20045;-69
2023/03/12 00:15:38;;;;;;;0.10;0.10;;;;;;;0.99;99.28;97458.88;5023635;28;20046;-69
2023/03/12 00:18:04;;;;;;;0.10;0.10;;;;;;;0.98;99.44;97454.56;5025518;28;20053;-69
2023/03/12 00:20:30;;;;;;;0.10;0.10;;;;;;;1.02;99.61;97450.28;5009373;28;20045;-69
2023/03/12 00:22:56;;;;;;;0.10;0.10;;;;;;;1.01;99.76;97445.16;5007803;28;20049;-69
2023/03/12 00:25:22;;;;;;;0.10;0.10;;;;;;;1.06;99.76;97437.06;5027603;28;20115;-69
2023/03/12 00:27:50;;;;;;;0.10;0.10;;;;;;;1.08;99.83;97426.84;5025271;28;20045;-70
2023/03/12 00:30:16;;;;;;;0.10;0.10;;;;;;;1.08;100.00;97416.06;5024525;28;20049;-69
2023/03/12 00:32:43;;;;;;;0.10;0.10;;;;;;;1.10;100.00;97416.63;5019896;28;20072;-70
2023/03/12 00:35:09;;;;;;;0.10;0.10;;;;;;;1.09;100.00;97409.63;5020254;28;20072;-70
2023/03/12 00:37:36;;;;;;;0.13;0.13;;;;;;;1.12;100.00;97414.47;5026482;28;20041;-70
2023/03/12 00:40:04;;;;;;;0.10;0.10;;;;;;;1.09;100.00;97398.84;5016662;28;20072;-70
2023/03/12 00:42:30;;;;;;;0.10;0.10;;;;;;;1.13;100.00;97389.19;5023982;28;20069;-71
2023/03/12 00:44:58;;;;;;;0.10;0.10;;;;;;;1.12;100.00;97392.94;5023531;28;20315;-69
2023/03/12 00:47:25;;;;;;;0.10;0.10;;;;;;;1.19;100.00;97395.34;5024479;28;20144;-69
2023/03/12 00:49:51;;;;;;;0.10;0.10;;;;;;;1.19;100.00;97384.59;5024581;28;20535;-69
2023/03/12 00:52:17;;;;;;;0.10;0.10;;;;;;;1.21;100.00;97385.91;5026260;28;20428;-70
2023/03/12 00:54:43;;;;;;;0.10;0.10;;;;;;;1.25;100.00;97375.41;5025763;28;20049;-69
2023/03/12 00:57:09;;;;;;;0.10;0.10;;;;;;;1.29;100.00;97362.22;5026323;28;20140;-69
2023/03/12 00:59:39;;;;;;;0.10;0.10;;;;;;;1.28;100.00;97356.00;5039755;28;20072;-69
2023/03/12 01:02:07;;;;;;;0.10;0.10;;;;;;;1.31;100.00;97349.28;4989237;28;20102;-69
2023/03/12 01:04:34;;;;;;;0.10;0.10;;;;;;;1.35;100.00;97347.66;5005186;28;20661;-68
2023/03/12 01:07:00;;;;;;;0.10;0.10;;;;;;;1.32;100.00;97342.81;5020611;28;20052;-70
2023/03/12 01:09:26;;;;;;;0.10;0.10;;;;;;;1.35;100.00;97344.97;5023197;28;20053;-69
2023/03/12 01:11:52;;;;;;;0.52;0.20;;;;;;;1.38;100.00;97342.53;5023824;28;20536;-70
2023/03/12 01:14:18;;;;;;;0.17;0.17;;;;;;;1.40;100.00;97320.69;5024810;28;20068;-68
2023/03/12 01:16:44;;;;;;;0.17;0.17;;;;;;;1.46;100.00;97343.03;5025779;28;20041;-69
2023/03/12 01:19:13;;;;;;;1.05;0.25;;;;;;;1.48;100.00;97333.59;5024899;28;20069;-70
2023/03/12 01:21:39;;;;;;;0.20;0.20;;;;;;;1.49;100.00;97327.13;4990175;28;20045;-70
2023/03/12 01:24:06;;;;;;;0.82;0.28;;;;;;;1.41;100.00;97301.56;5022065;28;20053;-69
2023/03/12 01:26:32;;;;;;;0.32;0.22;;;;;;;1.57;100.00;97311.50;5023147;28;20079;-69
2023/03/12 01:28:58;;;;;;;0.20;0.10;;;;;;;1.58;100.00;97305.03;5022583;28;20164;-70
2023/03/12 01:31:24;;;;;;;0.20;0.20;;;;;;;1.61;100.00;97310.63;5022871;28;20082;-70
2023/03/12 01:33:51;;;;;;;0.22;0.20;;;;;;;1.63;100.00;97299.59;5025500;28;20041;-70
2023/03/12 01:36:21;;;;;;;0.30;0.20;;;;;;;1.66;100.00;97297.16;5021043;28;20425;-70
2023/03/12 01:38:49;;;;;;;0.10;0.10;;;;;;;1.68;100.00;97284.22;5003883;28;20042;-69
2023/03/12 01:41:16;;;;;;;0.10;0.10;;;;;;;1.63;100.00;97273.44;5023884;28;20053;-69
2023/03/12 01:43:42;;;;;;;0.10;0.10;;;;;;;1.74;100.00;97286.88;5021988;28;20076;-70
2023/03/12 01:46:27;;;;;;;1.10;0.30;;;;;;;1.79;100.00;97284.13;5024961;28;20053;-68
2023/03/12 01:48:58;;;;;;;0.10;0.10;;;;;;;1.80;100.00;97283.06;5005284;28;20527;-69
2023/03/12 01:51:32;;;;;;;0.60;0.30;;;;;;;1.82;100.00;97268.22;5000311;28;20049;-69
2023/03/12 01:54:03;;;;;;;0.10;0.10;;;;;;;1.77;100.00;97245.88;5020769;28;20049;-69
2023/03/12 01:56:34;;;;;;;0.20;0.20;;;;;;;1.87;100.00;97261.19;5023264;28;20053;-69
2023/03/12 01:59:06;;;;;;;0.10;0.10;;;;;;;1.83;100.00;97256.34;5022252;28;20049;-69
2023/03/12 02:01:33;;;;;;;0.22;0.22;;;;;;;1.91;100.00;97256.88;5007038;28;20060;-69
2023/03/12 02:04:00;;;;;;;0.20;0.20;;;;;;;1.95;100.00;97266.00;5021150;28;20107;-69
2023/03/12 02:06:33;;;;;;;0.10;0.10;;;;;;;1.95;100.00;97255.22;5022834;28;20052;-70
2023/03/12 02:09:01;;;;;;;0.10;0.10;;;;;;;1.95;100.00;97247.13;5003390;28;20053;-70
2023/03/12 02:11:28;;;;;;;0.25;0.10;;;;;;;1.95;100.00;97233.66;5022446;28;20088;-68
2023/03/12 02:13:55;;;;;;;0.10;0.10;;;;;;;1.98;100.00;97228.50;5007755;28;20045;-69
2023/03/12 02:16:21;;;;;;;0.10;0.10;;;;;;;2.00;100.00;97239.00;5005807;28;20509;-70
2023/03/12 02:18:49;;;;;;;0.10;0.10;;;;;;;2.03;100.00;97237.63;5022641;28;20077;-69
2023/03/12 02:21:19;;;;;;;0.17;0.17;;;;;;;2.04;100.00;97228.47;5021151;28;20431;-68
2023/03/12 02:23:55;;;;;;;0.10;0.10;;;;;;;2.06;100.00;97223.59;5018873;28;20046;-69
2023/03/12 02:26:23;;;;;;;0.10;0.10;;;;;;;2.06;100.00;97216.31;5021368;28;20077;-69
2023/03/12 02:28:49;;;;;;;0.10;0.10;;;;;;;2.13;100.00;97213.28;4986642;28;20064;-69
2023/03/12 02:31:20;;;;;;;0.10;0.10;;;;;;;2.17;100.00;97217.03;5020695;28;20053;-68
2023/03/12 02:33:46;;;;;;;0.10;0.10;;;;;;;2.18;100.00;97212.44;5018419;28;20053;-69
2023/03/12 02:36:12;;;;;;;0.10;0.10;;;;;;;2.22;100.00;97210.78;5020432;28;20145;-69
2023/03/12 02:38:41;;;;;;;0.10;0.10;;;;;;;2.21;100.00;97204.59;5019405;28;20145;-69
2023/03/12 02:41:15;;;;;;;0.10;0.10;;;;;;;2.23;100.00;97202.41;5021750;28;20042;-69
2023/03/12 02:43:45;;;;;;;0.10;0.10;;;;;;;2.18;100.00;97178.19;5019650;28;20072;-69
2023/03/12 02:46:12;;;;;;;0.10;0.10;;;;;;;2.26;100.00;97177.59;5014642;28;20065;-69
2023/03/12 02:48:38;;;;;;;0.10;0.10;;;;;;;2.26;100.00;97171.38;5020429;28;20060;-68
2023/03/12 02:51:04;;;;;;;0.10;0.10;;;;;;;2.31;100.00;97170.53;5024842;28;20501;-68
2023/03/12 02:53:31;;;;;;;0.10;0.10;;;;;;;2.30;100.00;97158.94;5021772;28;20461;-69
2023/03/12 02:55:57;;;;;;;0.10;0.10;;;;;;;2.32;100.00;97155.97;5023394;28;20512;-69
2023/03/12 02:58:23;;;;;;;0.10;0.10;;;;;;;2.33;100.00;97166.44;5020244;28;20546;-69
2023/03/12 03:00:51;;;;;;;0.13;0.10;;;;;;;2.32;100.00;97145.97;5003756;28;20049;-69
2023/03/12 03:03:17;;;;;;;0.10;0.10;;;;;;;2.33;100.00;97144.06;5016515;28;20085;-69
2023/03/12 03:05:44;;;;;;;0.10;0.10;;;;;;;2.34;100.00;97137.59;5004992;28;20477;-69
2023/03/12 03:08:10;;;;;;;0.10;0.10;;;;;;;2.35;100.00;97134.63;5020294;28;20127;-68
2023/03/12 03:10:36;;;;;;;0.13;0.13;;;;;;;2.37;100.00;97123.53;5021905;28;20061;-69
2023/03/12 03:13:02;;;;;;;0.10;0.10;;;;;;;2.41;100.00;97129.94;5024783;28;20420;-68
2023/03/12 03:15:28;;;;;;;0.10;0.10;;;;;;;2.39;100.00;97126.75;5021547;28;20045;-67
2023/03/12 03:17:57;;;;;;;0.10;0.10;;;;;;;2.39;100.00;97107.88;5019730;28;20131;-69
2023/03/12 03:20:24;;;;;;;0.10;0.10;;;;;;;2.44;100.00;97115.91;5024891;28;20128;-71
2023/03/12 03:22:51;;;;;;;0.10;0.10;;;;;;;2.48;100.00;97118.81;5024963;28;20512;-71
2023/03/12 03:25:21;;;;;;;0.10;0.10;;;;;;;2.47;100.00;97109.13;5022763;28;20065;-71
2023/03/12 03:27:47;;;;;;;0.10;0.10;;;;;;;2.51;100.00;97110.19;5007417;28;20056;-71
2023/03/12 03:30:13;;;;;;;0.10;0.10;;;;;;;2.54;100.00;97102.28;5024945;28;20420;-71
2023/03/12 03:32:43;;;;;;;0.10;0.10;;;;;;;2.56;100.00;97102.00;5026609;28;20053;-71
2023/03/12 03:35:12;;;;;;;0.10;0.10;;;;;;;2.57;100.00;97098.22;5020299;28;20101;-70
2023/03/12 03:37:38;;;;;;;0.10;0.10;;;;;;;2.61;100.00;97093.06;5006096;28;20266;-71
2023/03/12 03:40:10;;;;;;;0.10;0.10;;;;;;;2.61;100.00;97093.84;5024739;28;20628;-70
2023/03/12 03:42:39;;;;;;;0.20;0.10;;;;;;;2.61;100.00;97082.28;5006726;28;20102;-70
2023/03/12 03:45:08;;;;;;;0.20;0.10;;;;;;;2.59;100.00;97079.06;5005053;28;20050;-71
2023/03/12 03:47:34;;;;;;;0.10;0.10;;;;;;;2.60;100.00;97069.88;5024346;28;20057;-70
2023/03/12 03:50:03;;;;;;;0.10;0.10;;;;;;;2.65;100.00;97076.00;5019713;28;20125;-71
2023/03/12 03:52:31;;;;;;;;;;;;;;;2.66;100.00;97061.44;5025767;28;20056;-69
2023/03/12 03:54:58;;;;;;;0.10;0.10;;;;;;;2.67;100.00;97064.91;5021085;28;19929;-69
2023/03/12 03:57:25;;;;;;;0.10;0.10;;;;;;;2.62;100.00;97043.41;5021473;28;20042;-69
2023/03/12 03:59:51;;;;;;;0.20;0.20;;;;;;;2.69;100.00;97039.25;5040148;28;20415;-70
2023/03/12 04:02:17;;;;;;;0.10;0.10;;;;;;;2.71;100.00;97041.66;5002341;28;20074;-71
2023/03/12 04:04:43;;;;;;;0.25;0.10;;;;;;;2.75;100.00;97040.00;5021406;28;20049;-71
2023/03/12 04:07:10;;;;;;;0.10;0.10;;;;;;;2.79;100.00;97030.22;5024478;28;20400;-70
2023/03/12 04:09:38;;;;;;;0.10;0.10;;;;;;;2.73;100.00;97020.56;5027365;28;20127;-70
2023/03/12 04:12:04;;;;;;;0.10;0.10;;;;;;;2.78;100.00;97025.91;5024683;28;20088;-70
2023/03/12 04:14:31;;;;;;;0.10;0.10;;;;;;;2.82;100.00;97026.13;5021513;28;20041;-70
2023/03/12 04:16:57;;;;;;;0.10;0.10;;;;;;;2.84;100.00;97015.84;5019895;28;20057;-69
2023/03/12 04:19:23;;;;;;;0.88;0.30;;;;;;;2.86;100.00;97010.13;5017882;28;20054;-69
2023/03/12 04:21:49;;;;;;;0.10;0.10;;;;;;;2.84;100.00;97005.84;5022933;28;20566;-70
2023/03/12 04:24:16;;;;;;;0.20;0.20;;;;;;;2.89;100.00;97009.53;5022367;28;20527;-70
2023/03/12 04:26:44;;;;;;;;;;;;;;;2.91;100.00;97008.16;5021420;28;20115;-69
2023/03/12 04:29:12;;;;;;;0.10;0.10;;;;;;;2.94;100.00;96994.09;5024730;28;19925;-70
2023/03/12 04:31:39;;;;;;;0.10;0.10;;;;;;;2.97;100.00;97001.63;5021536;28;20041;-70
2023/03/12 04:34:05;;;;;;;0.10;0.10;;;;;;;2.99;100.00;96995.91;5021479;28;20038;-70
2023/03/12 04:36:31;;;;;;;0.10;0.10;;;;;;;3.01;100.00;96992.94;5023358;28;20049;-70
2023/03/12 04:38:58;;;;;;;;;;;;;;;3.06;100.00;96999.06;5005586;28;20069;-69
2023/03/12 04:41:29;;;;;;;0.10;0.10;;;;;;;3.07;100.00;97000.66;5022475;28;19932;-70
2023/03/12 04:44:05;;;;;;;0.10;0.10;;;;;;;3.08;100.00;96996.84;5019734;28;20045;-70
2023/03/12 04:46:33;;;;;;;0.10;0.10;;;;;;;3.11;100.00;96993.56;5019226;28;20085;-70
2023/03/12 04:49:01;;;;;;;0.10;0.10;;;;;;;3.11;100.00;96988.16;5024687;28;20049;-71
2023/03/12 04:51:30;;;;;;;0.20;0.20;;;;;;;3.15;100.00;96987.56;5025556;28;20095;-70
2023/03/12 04:53:56;;;;;;;;;;;;;;;3.16;100.00;96978.38;4997392;28;20144;-68
2023/03/12 04:56:22;;;;;;;0.80;0.20;;;;;;;3.16;100.00;96979.19;5004026;28;20016;-69
2023/03/12 04:58:49;;;;;;;0.10;0.10;;;;;;;3.17;100.00;96983.47;5021530;28;20049;-68
2023/03/12 05:01:29;;;;;;;0.15;0.13;;;;;;;3.20;100.00;96963.97;5020288;28;20084;-69
2023/03/12 05:03:55;;;;;;;0.10;0.10;;;;;;;3.21;100.00;96957.47;5002184;28;20049;-70
2023/03/12 05:06:23;;;;;;;0.10;0.10;;;;;;;3.19;100.00;96943.47;5017414;28;20053;-70
2023/03/12 05:08:49;;;;;;;;;;;;;;;3.28;100.00;96954.41;5023896;28;20278;-71
2023/03/12 05:11:16;;;;;;;0.10;0.10;;;;;;;3.31;100.00;96956.50;5007651;28;20444;-71
2023/03/12 05:13:42;;;;;;;0.10;0.10;;;;;;;3.30;100.00;96954.91;5023717;28;20050;-70
2023/03/12 05:16:09;;;;;;;0.10;0.10;;;;;;;3.31;100.00;96947.63;5021784;28;20551;-71
2023/03/12 05:18:37;;;;;;;0.10;0.10;;;;;;;3.35;100.00;96946.69;5020689;28;20065;-70
2023/03/12 05:21:05;;;;;;;0.32;0.28;;;;;;;3.41;100.00;96939.31;5022816;28;20053;-70
2023/03/12 05:23:32;;;;;;;0.10;0.10;;;;;;;3.44;100.00;96929.81;5005411;28;20045;-70
2023/03/12 05:25:59;;;;;;;0.10;0.10;;;;;;;3.49;100.00;96932.41;5023119;28;20598;-71
2023/03/12 05:28:27;;;;;;;0.10;0.10;;;;;;;3.55;100.00;96928.53;5019766;28;20048;-69
2023/03/12 05:30:55;;;;;;;0.10;0.10;;;;;;;3.51;100.00;96917.53;5017622;28;20403;-70
2023/03/12 05:33:23;;;;;;;0.13;0.13;;;;;;;3.59;100.00;96926.03;5001500;28;20453;-70
2023/03/12 05:35:50;;;;;;;0.10;0.10;;;;;;;3.64;100.00;96921.31;5021435;28;20049;-69
2023/03/12 05:38:17;;;;;;;0.10;0.10;;;;;;;3.63;100.00;96908.91;5023623;28;20077;-69
2023/03/12 05:40:51;;;;;;;0.10;0.10;;;;;;;3.66;100.00;96910.22;5007271;28;20080;-69
2023/03/12 05:43:17;;;;;;;0.10;0.10;;;;;;;3.72;100.00;96911.72;5003333;28;20133;-69
2023/03/12 05:45:43;;;;;;;0.17;0.17;;;;;;;3.75;100.00;96908.44;5022871;28;20417;-69
2023/03/12 05:48:09;;;;;;;0.10;0.10;;;;;;;3.78;100.00;96902.41;5001760;28;20330;-69
2023/03/12 05:50:35;;;;;;;0.10;0.10;;;;;;;3.81;100.00;96907.22;5016683;28;20053;-69
2023/03/12 05:53:02;;;;;;;0.10;0.10;;;;;;;3.86;100.00;96900.09;5025699;28;20060;-69
2023/03/12 05:55:29;;;;;;;0.17;0.17;;;;;;;3.88;100.00;96898.72;5006607;28;20131;-70
2023/03/12 05:57:55;;;;;;;0.10;0.10;;;;;;;3.91;100.00;96895.41;5017886;28;20042;-70
2023/03/12 06:00:22;;;;;;;0.10;0.10;;;;;;;3.92;100.00;96880.78;5021417;28;20049;-71
2023/03/12 06:02:54;;;;;;;0.10;0.10;;;;;;;3.92;100.00;96872.66;5007425;28;20210;-70
2023/03/12 06:05:20;;;;;;;0.10;0.10;;;;;;;3.99;100.00;96879.56;5020833;28;20049;-70
2023/03/12 06:07:46;;;;;;;0.10;0.10;;;;;;;4.03;100.00;96892.16;5021941;28;20627;-71
2023/03/12 06:10:14;;;;;;;0.20;0.20;;;;;;;4.06;100.00;96886.19;5020572;28;20388;-70
2023/03/12 06:12:40;;;;;;;0.10;0.10;;;;;;;4.04;100.00;96888.34;5024217;28;20053;-70
2023/03/12 06:15:07;;;;;;;0.10;0.10;;;;;;;4.01;100.00;96867.34;5019808;28;20136;-70
2023/03/12 06:17:34;;;;;;;0.10;0.10;;;;;;;4.11;100.00;96882.53;5004522;28;20750;-70
2023/03/12 06:20:00;;;;;;;0.15;0.10;;;;;;;4.14;100.00;96881.94;5020313;28;20505;-71
2023/03/12 06:22:27;;;;;;;0.10;0.10;;;;;;;4.15;100.00;96883.56;5038175;28;20049;-70
2023/03/12 06:24:54;;;;;;;0.10;0.10;;;;;;;4.17;100.00;96865.13;5022244;28;20088;-70
2023/03/12 06:27:21;;;;;;;0.10;0.10;;;;;;;4.21;100.00;96868.81;5020066;28;20152;-70
2023/03/12 06:29:48;;;;;;;0.10;0.10;;;;;;;4.20;100.00;96864.50;5023594;28;20723;-70
2023/03/12 06:32:14;;;;;;;0.10;0.10;;;;;;;4.24;100.00;96860.06;5021448;28;20054;-70
2023/03/12 06:34:40;;;;;;;0.10;0.10;;;;;;;4.25;100.00;96860.88;5018062;28;20567;-70
2023/03/12 06:37:06;;;;;;;0.10;0.10;;;;;;;4.24;100.00;96860.06;5019628;28;20068;-70
2023/03/12 06:39:32;;;;;;;0.20;0.20;;;;;;;4.25;100.00;96861.66;5024230;28;20508;-71
2023/03/12 06:42:04;;;;;;;0.20;0.20;;;;;;;4.14;100.00;96835.97;4843864;28;10001095;-70
2023/03/12 06:44:31;;;;;;;0.15;0.15;;;;;;;4.28;100.00;96852.16;5016972;28;20263;-70
2023/03/12 06:46:58;;;;;;;0.10;0.10;;;;;;;4.28;100.00;96849.44;5019145;28;20065;-69
2023/03/12 06:49:26;;;;;;;0.10;0.10;;;;;;;4.30;100.00;96839.13;5021625;28;20164;-68
2023/03/12 06:51:52;;;;;;;0.57;0.20;;;;;;;4.31;100.00;96846.13;5022175;28;20053;-68
2023/03/12 06:54:18;;;;;;;0.25;0.20;;;;;;;4.34;100.00;96836.59;5021026;28;20243;-68
2023/03/12 06:56:44;;;;;;;0.10;0.10;;;;;;;4.37;100.00;96825.97;5023826;28;20045;-69
2023/03/12 06:59:10;;;;;;;0.10;0.10;;;;;;;4.42;100.00;96837.78;5019160;28;20045;-71
2023/03/12 07:01:38;;;;;;;0.20;0.20;;;;;;;4.44;100.00;96817.41;5014520;28;20050;-70
2023/03/12 07:04:04;;;;;;;;;;;;;;;4.45;100.00;96829.03;5020763;28;20060;-69
2023/03/12 07:06:30;;;;;;;0.10;0.10;;;;;;;4.43;100.00;96812.31;5026821;28;19929;-69
2023/03/12 07:08:56;;;;;;;0.10;0.10;;;;;;;4.48;100.00;96829.25;5027455;28;20535;-68
2023/03/12 07:11:22;;;;;;;0.10;0.10;;;;;;;4.47;100.00;96818.72;5027851;28;20116;-69
2023/03/12 07:13:48;;;;;;;0.10;0.10;;;;;;;4.48;100.00;96814.91;5023030;28;20054;-69
2023/03/12 07:16:15;;;;;;;0.10;0.10;;;;;;;4.47;100.00;96807.88;5021308;28;20038;-69
2023/03/12 07:18:42;;;;;;;0.10;0.10;;;;;;;4.47;100.00;96806.00;5022526;28;20042;-68
2023/03/12 07:21:08;;;;;;;0.10;0.10;;;;;;;4.49;100.00;96801.06;5024508;28;20042;-68
2023/03/12 07:23:34;;;;;;;0.10;0.10;;;;;;;4.54;100.00;96805.56;5025071;28;20468;-68
2023/03/12 07:26:03;;;;;;;0.10;0.10;;;;;;;4.57;100.00;96801.41;5023281;28;20123;-69
2023/03/12 07:28:29;;;;;;;0.10;0.10;;;;;;;4.62;100.00;96798.63;5022487;28;20050;-68
2023/03/12 07:30:59;;;;;;;0.10;0.10;;;;;;;4.61;100.00;96800.50;5024154;28;20038;-69
2023/03/12 07:33:25;;;;;;;0.17;0.17;;;;;;;4.63;100.00;96800.22;5019740;28;20132;-69
2023/03/12 07:35:53;;;;;;;0.10;0.10;;;;;;;4.62;100.00;96788.56;5026056;28;20053;-68
2023/03/12 07:38:19;;;;;;;0.10;0.10;;;;;;;4.64;100.00;96767.41;5025127;28;20053;-68
2023/03/12 07:40:50;;;;;;;0.10;0.10;;;;;;;4.67;100.00;96772.19;5023534;28;20511;-69
2023/03/12 07:43:16;;;;;;;0.10;0.10;;;;;;;4.65;100.00;96771.69;5015070;28;20052;-69
2023/03/12 07:45:42;;;;;;;0.10;0.10;;;;;;;4.65;100.00;96769.00;5013622;28;20127;-69
2023/03/12 07:48:08;;;;;;;0.10;0.10;;;;;;;4.66;100.00;96765.19;5016365;28;20042;-69
2023/03/12 07:50:35;;;;;;;0.10;0.10;;;;;;;4.66;100.00;96758.97;5012495;28;20054;-69
2023/03/12 07:53:03;;;;;;;0.10;0.10;;;;;;;4.66;100.00;96757.06;5020702;28;20416;-68
2023/03/12 07:55:29;;;;;;;0.10;0.10;;;;;;;4.66;100.00;96751.66;5019464;28;20201;-68
2023/03/12 07:57:57;;;;;;;0.10;0.10;;;;;;;4.67;100.00;96744.34;5014208;28;20045;-68
2023/03/12 08:00:24;;;;;;;0.10;0.10;;;;;;;4.68;100.00;96746.75;5017967;28;20537;-68
2023/03/12 08:02:50;;;;;;;0.10;0.10;;;;;;;4.60;100.00;96723.13;5004508;28;20044;-68
2023/03/12 08:05:16;;;;;;;0.13;0.13;;;;;;;4.63;100.00;96738.75;5015037;28;20045;-68
2023/03/12 08:07:43;;;;;;;0.15;0.15;;;;;;;4.61;100.00;96729.34;5014733;28;20049;-68
2023/03/12 08:10:11;;;;;;;0.10;0.10;;;;;;;4.59;100.00;96737.78;5014946;28;20049;-68
2023/03/12 08:12:38;;;;;;;0.10;0.10;;;;;;;4.66;100.00;96742.75;5012728;28;20054;-68
2023/03/12 08:15:04;;;;;;;0.13;0.13;;;;;;;4.53;100.00;96693.03;5019857;28;20041;-68
2023/03/12 08:17:31;;;;;;;0.10;0.10;;;;;;;4.65;100.00;96727.63;5016032;28;20069;-68
2023/03/12 08:19:57;;;;;;;0.10;0.10;;;;;;;4.64;100.00;96721.41;5015540;28;20053;-68
2023/03/12 08:22:23;;;;;;;0.20;0.20;;;;;;;4.65;100.00;96714.88;5007168;28;20584;-68
2023/03/12 08:24:49;;;;;;;0.10;0.10;;;;;;;4.64;100.00;96709.78;5030371;28;20109;-67
2023/03/12 08:27:16;;;;;;;0.17;0.17;;;;;;;4.64;100.00;96713.28;5012171;28;20045;-68
2023/03/12 08:29:42;;;;;;;0.10;0.10;;;;;;;4.73;100.00;96709.81;5013975;28;20492;-68
2023/03/12 08:32:09;;;;;;;0.10;0.10;;;;;;;4.77;100.00;96708.06;5018113;28;20525;-68
2023/03/12 08:34:36;;;;;;;0.32;0.20;;;;;;;4.62;100.00;96666.00;5016885;28;20048;-68
2023/03/12 08:37:02;;;;;;;0.13;0.13;;;;;;;4.77;100.00;96692.66;5020781;28;20148;-67
2023/03/12 08:39:28;;;;;;;0.20;0.20;;;;;;;4.82;100.00;96680.84;5016438;28;21163;-68
2023/03/12 08:41:54;;;;;;;0.10;0.10;;;;;;;4.79;100.00;96685.00;5019907;28;20041;-67
2023/03/12 08:44:23;;;;;;;0.17;0.17;;;;;;;4.75;100.00;96677.81;5017458;28;20058;-68
2023/03/12 08:46:49;;;;;;;0.10;0.10;;;;;;;4.76;100.00;96665.88;5010183;28;20062;-68
2023/03/12 08:49:15;;;;;;;0.10;0.10;;;;;;;4.74;100.00;96666.19;5012822;28;20445;-68
2023/03/12 08:51:41;;;;;;;0.63;0.20;;;;;;;4.77;100.00;96662.88;5002610;28;20314;-68
2023/03/12 08:54:08;;;;;;;0.10;0.10;;;;;;;4.82;100.00;96651.09;5012926;28;20050;-70
2023/03/12 08:56:40;;;;;;;0.57;0.20;;;;;;;4.85;100.00;96657.78;5021390;28;20630;-68
2023/03/12 08:59:06;;;;;;;0.10;0.10;;;;;;;4.90;100.00;96653.03;5029648;28;20310;-68
2023/03/12 09:01:34;;;;;;;0.10;0.10;;;;;;;4.87;100.00;96658.25;5015607;28;20115;-68
2023/03/12 09:04:01;;;;;;;0.10;0.10;;;;;;;4.84;100.00;96643.47;5010911;28;20575;-68
2023/03/12 09:06:27;;;;;;;0.10;0.10;;;;;;;4.82;100.00;96640.25;5015032;28;20084;-68
2023/03/12 09:08:53;;;;;;;0.10;0.10;;;;;;;4.81;100.00;96649.47;5010747;28;20109;-68
2023/03/12 09:11:19;;;;;;;0.10;0.10;;;;;;;4.83;100.00;96636.44;5017561;28;20042;-68
2023/03/12 09:13:46;;;;;;;0.20;0.20;;;;;;;4.84;100.00;96635.34;5012453;28;20049;-69
2023/03/12 09:16:14;;;;;;;0.10;0.10;;;;;;;4.82;100.00;96632.94;5013863;28;20446;-68
2023/03/12 09:18:41;;;;;;;0.10;0.10;;;;;;;4.82;100.00;96624.00;5011295;28;20580;-68
2023/03/12 09:21:08;;;;;;;0.10;0.10;;;;;;;4.82;100.00;96627.53;5014388;28;20056;-69
2023/03/12 09:23:34;;;;;;;0.10;0.10;;;;;;;4.78;100.00;96629.28;5016508;28;20532;-70
2023/03/12 09:26:00;;;;;;;0.10;0.10;;;;;;;4.66;100.00;96608.19;5010805;28;20045;-70
2023/03/12 09:28:26;;;;;;;0.10;0.10;;;;;;;4.81;100.00;96636.75;5020545;28;20053;-69
2023/03/12 09:30:52;;;;;;;0.13;0.13;;;;;;;4.86;100.00;96619.59;5013059;28;20461;-70
2023/03/12 09:33:18;;;;;;;0.10;0.10;;;;;;;4.86;100.00;96606.03;5010796;28;20053;-70
2023/03/12 09:35:55;;;;;;;0.10;0.10;;;;;;;4.83;100.00;96585.00;5010203;28;20133;-68
2023/03/12 09:38:21;;;;;;;0.10;0.10;;;;;;;4.83;100.00;96595.81;5010783;28;20068;-68
2023/03/12 09:40:48;;;;;;;0.10;0.10;;;;;;;4.70;100.00;96562.38;5007682;28;20057;-69
2023/03/12 09:43:22;;;;;;;0.17;0.17;;;;;;;4.87;100.00;96588.69;5008704;28;20057;-68
2023/03/12 09:45:48;;;;;;;0.10;0.10;;;;;;;4.88;100.00;96590.28;5016385;28;20048;-68
2023/03/12 09:48:17;;;;;;;0.10;0.10;;;;;;;4.76;100.00;96563.03;5012401;28;20042;-68
2023/03/12 09:50:48;;;;;;;0.10;0.10;;;;;;;4.66;100.00;96559.50;5014226;28;20346;-68
2023/03/12 09:53:22;;;;;;;0.10;0.10;;;;;;;4.63;100.00;96556.63;5009955;28;20052;-68
2023/03/12 09:55:51;;;;;;;0.10;0.10;;;;;;;4.76;100.00;96571.13;4999080;28;20049;-69
2023/03/12 09:58:24;;;;;;;0.43;0.20;;;;;;;4.76;100.00;96560.31;5010511;28;20332;-68
2023/03/12 10:00:54;;;;;;;0.10;0.10;;;;;;;4.79;100.00;96563.19;5014020;28;20046;-69
2023/03/12 10:03:41;;;;;;;0.10;0.10;;;;;;;4.79;100.00;96543.44;4997220;28;20104;-68
2023/03/12 10:06:13;;;;;;;0.10;0.10;;;;;;;4.80;100.00;96542.31;5014063;28;20041;-69
2023/03/12 10:08:53;;;;;;;0.10;0.10;;;;;;;4.79;100.00;96546.13;5010563;28;20497;-69
2023/03/12 10:11:31;;;;;;;0.10;0.10;;;;;;;4.81;100.00;96533.91;5014610;28;20057;-69
2023/03/12 10:14:13;;;;;;;0.10;0.10;;;;;;;4.77;100.00;96529.44;5014225;28;20501;-69
2023/03/12 10:16:50;;;;;;;0.10;0.10;;;;;;;4.78;100.00;96528.31;5023157;28;20038;-69
2023/03/12 10:19:36;;;;;;;0.10;0.10;;;;;;;4.75;100.00;96521.59;5019265;28;20516;-69
2023/03/12 10:22:14;;;;;;;0.10;0.10;;;;;;;4.75;100.00;96510.78;5015365;28;20132;-69
2023/03/12 10:24:55;;;;;;;0.10;0.10;;;;;;;4.82;100.00;96513.00;5017967;28;20053;-70
2023/03/12 10:27:26;;;;;;;0.10;0.10;;;;;;;4.83;100.00;96506.50;5009626;28;20053;-70
2023/03/12 10:29:53;;;;;;;0.10;0.10;;;;;;;4.86;100.00;96508.59;5015924;28;20052;-69
2023/03/12 10:32:25;;;;;;;0.17;0.17;;;;;;;4.88;100.00;96498.22;5016137;28;20052;-70
2023/03/12 10:34:55;;;;;;;0.13;0.13;;;;;;;4.99;100.00;96484.34;4324389;28;10000823;-70
2023/03/12 10:37:25;;;;;;;0.10;0.10;;;;;;;4.96;100.00;96483.88;5012457;28;20034;-69
2023/03/12 10:39:52;;;;;;;0.10;0.10;;;;;;;4.92;100.00;96474.03;5015196;28;20049;-68
2023/03/12 10:42:21;;;;;;;0.20;0.20;;;;;;;4.90;100.00;96485.16;5017283;28;20099;-68
2023/03/12 10:44:51;;;;;;;0.10;0.10;;;;;;;4.96;100.00;96459.50;5029225;28;20227;-68
2023/03/12 10:47:32;;;;;;;0.10;0.10;;;;;;;4.82;100.00;96448.06;5005429;28;20054;-68
2023/03/12 10:50:13;;;;;;;0.10;0.10;;;;;;;4.88;100.00;96462.22;5020331;28;20038;-68
2023/03/12 10:52:42;;;;;;;0.13;0.13;;;;;;;4.85;100.00;96455.56;5011434;28;20057;-68
2023/03/12 10:55:18;;;;;;;0.10;0.10;;;;;;;4.91;100.00;96467.81;5020987;28;20095;-68
2023/03/12 10:57:44;;;;;;;0.20;0.20;;;;;;;4.87;100.00;96457.94;5016422;28;20048;-68
2023/03/12 11:00:18;;;;;;;0.10;0.10;;;;;;;4.93;100.00;96448.53;5013899;28;20107;-68
2023/03/12 11:02:45;;;;;;;0.10;0.10;;;;;;;5.01;100.00;96447.72;5018640;28;20087;-68
2023/03/12 11:05:20;;;;;;;0.15;0.15;;;;;;;5.02;100.00;96453.94;5019559;28;20068;-68
2023/03/12 11:07:49;;;;;;;0.20;0.20;;;;;;;5.01;100.00;96441.53;5019549;28;20516;-68
2023/03/12 11:10:21;;;;;;;0.10;0.10;;;;;;;5.02;100.00;96443.13;5017573;28;20104;-68
2023/03/12 11:13:19;;;;;;;0.20;0.20;;;;;;;5.00;100.00;96440.72;5021111;28;20133;-68
2023/03/12 11:15:46;;;;;;;0.20;0.20;;;;;;;5.07;100.00;96437.53;5019633;28;20098;-68
2023/03/12 11:18:25;;;;;;;0.20;0.20;;;;;;;5.09;100.00;96443.41;5018956;28;20057;-68
2023/03/12 11:20:53;;;;;;;0.20;0.20;;;;;;;5.01;100.00;96422.56;5015967;28;20319;-69
2023/03/12 11:23:24;;;;;;;0.10;0.10;;;;;;;4.98;100.00;96437.53;5016288;28;20073;-69
2023/03/12 11:25:52;;;;;;;0.10;0.10;;;;;;;4.99;100.00;96431.00;5019729;28;20594;-69
2023/03/12 11:28:22;;;;;;;0.10;0.10;;;;;;;5.07;100.00;96429.41;5029772;28;20045;-69
2023/03/12 11:30:52;;;;;;;0.20;0.20;;;;;;;5.15;100.00;96420.47;5026574;28;20052;-69
2023/03/12 11:33:19;;;;;;;0.10;0.10;;;;;;;5.13;100.00;96425.41;5024397;28;20049;-69
2023/03/12 11:35:52;;;;;;;0.17;0.17;;;;;;;5.14;100.00;96432.41;5016457;28;20103;-69
2023/03/12 11:38:20;;;;;;;0.10;0.10;;;;;;;5.16;100.00;96430.19;5016231;28;20050;-68